createdAt,value
2022-09-09T00:01:37.398Z,15.00
2022-09-09T00:04:28.658Z,15.00
2022-09-09T00:07:11.926Z,15.00
2022-09-09T00:10:19.914Z,15.00
2022-09-09T00:13:17.988Z,15.00
2022-09-09T00:15:50.715Z,15.00
2022-09-09T00:19:02.887Z,15.00
2022-09-09T00:21:43.999Z,15.00
2022-09-09T00:24:29.338Z,15.10
2022-09-09T00:27:23.171Z,15.00
2022-09-09T00:29:59.842Z,15.00
2022-09-09T00:32:31.884Z,15.10
2022-09-09T00:35:16.833Z,15.10
2022-09-09T00:37:48.152Z,15.00
2022-09-09T00:40:34.851Z,15.00
2022-09-09T00:43:28.354Z,15.00
2022-09-09T00:46:33.910Z,15.10
2022-09-09T00:49:41.584Z,15.00
2022-09-09T00:52:50.176Z,15.00
2022-09-09T00:55:51.839Z,14.90
2022-09-09T00:58:18.819Z,14.90
2022-09-09T01:00:53.908Z,14.90
2022-09-09T01:03:46.419Z,14.90
2022-09-09T01:06:37.675Z,15.00
2022-09-09T01:09:49.960Z,15.10
2022-09-09T01:12:25.835Z,15.00
2022-09-09T01:14:59.908Z,15.00
2022-09-09T01:17:35.708Z,14.90
2022-09-09T01:20:26.601Z,14.90
2022-09-09T01:23:28.726Z,14.90
2022-09-09T01:26:20.919Z,14.80
2022-09-09T01:28:50.699Z,14.80
2022-09-09T01:31:54.613Z,14.80
2022-09-09T01:34:23.815Z,14.80
2022-09-09T01:37:01.207Z,14.80
2022-09-09T01:39:28.207Z,14.80
2022-09-09T01:41:56.922Z,14.80
2022-09-09T01:44:24.339Z,14.70
2022-09-09T01:46:52.266Z,14.70
2022-09-09T01:49:19.371Z,14.60
2022-09-09T01:51:51.263Z,14.60
2022-09-09T01:54:21.576Z,14.60
2022-09-09T01:57:19.880Z,14.60
2022-09-09T02:00:16.229Z,14.60
2022-09-09T02:03:06.750Z,14.50
2022-09-09T02:05:43.206Z,14.50
2022-09-09T02:08:18.587Z,14.50
2022-09-09T02:11:03.699Z,14.50
2022-09-09T02:13:33.575Z,14.40
2022-09-09T02:16:14.592Z,14.40
2022-09-09T02:18:49.724Z,14.40
2022-09-09T02:21:18.219Z,14.40
2022-09-09T02:23:47.836Z,14.40
2022-09-09T02:26:21.107Z,14.30
2022-09-09T02:28:55.079Z,14.30
2022-09-09T02:31:25.379Z,14.40
2022-09-09T02:34:01.910Z,14.40
2022-09-09T02:36:34.277Z,14.40
2022-09-09T02:39:01.771Z,14.40
2022-09-09T02:41:36.597Z,14.40
2022-09-09T02:44:17.832Z,14.40
2022-09-09T02:47:29.546Z,14.40
2022-09-09T02:50:07.111Z,14.40
2022-09-09T02:53:10.931Z,14.40
2022-09-09T02:55:51.180Z,14.50
2022-09-09T02:58:19.727Z,14.50
2022-09-09T03:00:51.623Z,14.50
2022-09-09T03:03:20.427Z,14.60
2022-09-09T03:05:47.132Z,14.60
2022-09-09T03:08:14.553Z,14.50
2022-09-09T03:10:41.251Z,14.60
2022-09-09T03:13:08.841Z,14.40
2022-09-09T03:15:36.200Z,14.60
2022-09-09T03:18:03.231Z,14.60
2022-09-09T03:20:31.740Z,14.50
2022-09-09T03:23:01.047Z,14.50
2022-09-09T03:25:28.009Z,14.60
2022-09-09T03:27:55.968Z,14.50
2022-09-09T03:30:24.831Z,14.50
2022-09-09T03:32:52.264Z,14.40
2022-09-09T03:35:19.339Z,14.30
2022-09-09T03:37:46.107Z,14.30
2022-09-09T03:40:13.953Z,14.30
2022-09-09T03:42:40.981Z,14.30
2022-09-09T03:45:11.489Z,14.30
2022-09-09T03:47:38.216Z,14.30
2022-09-09T03:50:09.340Z,14.30
2022-09-09T03:52:41.591Z,14.30
2022-09-09T03:55:09.085Z,14.30
2022-09-09T03:57:36.728Z,14.30
2022-09-09T04:00:06.519Z,14.40
2022-09-09T04:02:33.291Z,14.50
2022-09-09T04:05:00.625Z,14.50
2022-09-09T04:07:29.309Z,14.60
2022-09-09T04:09:56.263Z,14.60
2022-09-09T04:12:23.333Z,14.70
2022-09-09T04:14:50.026Z,14.80
2022-09-09T04:17:18.253Z,14.80
2022-09-09T04:19:44.974Z,14.90
2022-09-09T04:22:11.672Z,15.00
2022-09-09T04:24:38.304Z,15.10
2022-09-09T04:27:05.058Z,15.20
2022-09-09T04:29:31.675Z,15.20
2022-09-09T04:31:58.301Z,15.20
2022-09-09T04:34:25.418Z,15.20
2022-09-09T04:36:52.949Z,15.30
2022-09-09T04:39:20.564Z,15.30
2022-09-09T04:41:48.042Z,15.30
2022-09-09T04:44:14.921Z,15.30
2022-09-09T04:46:42.390Z,15.30
2022-09-09T04:49:13.121Z,15.40
2022-09-09T04:51:41.697Z,15.40
2022-09-09T04:54:08.309Z,15.40
2022-09-09T04:56:34.937Z,15.40
2022-09-09T04:59:03.717Z,15.50
2022-09-09T05:01:30.377Z,15.50
2022-09-09T05:03:57.093Z,15.50
2022-09-09T05:06:24.573Z,15.50
2022-09-09T05:08:53.760Z,15.50
2022-09-09T05:11:33.416Z,15.60
2022-09-09T05:14:00.333Z,15.60
2022-09-09T05:16:27.507Z,15.70
2022-09-09T05:19:04.201Z,15.70
2022-09-09T05:21:32.314Z,15.80
2022-09-09T05:24:02.718Z,15.80
2022-09-09T05:26:32.391Z,15.80
2022-09-09T05:29:01.387Z,15.70
2022-09-09T05:31:31.741Z,15.80
2022-09-09T05:34:08.610Z,15.80
2022-09-09T05:36:38.965Z,15.80
2022-09-09T05:39:15.652Z,15.80
2022-09-09T05:41:42.282Z,15.80
2022-09-09T05:44:08.901Z,15.90
2022-09-09T05:46:35.586Z,15.90
2022-09-09T05:49:03.630Z,15.90
2022-09-09T05:51:33.527Z,15.90
2022-09-09T05:54:00.184Z,16.00
2022-09-09T05:56:31.057Z,16.00
2022-09-09T05:58:57.917Z,16.00
2022-09-09T06:01:31.120Z,16.00
2022-09-09T06:03:58.330Z,16.10
2022-09-09T06:06:28.222Z,16.10
2022-09-09T06:08:59.003Z,16.10
2022-09-09T06:11:34.700Z,16.20
2022-09-09T06:14:01.854Z,16.30
2022-09-09T06:16:30.601Z,16.40
2022-09-09T06:18:58.855Z,16.50
2022-09-09T06:21:29.290Z,16.60
2022-09-09T06:24:00.682Z,16.60
2022-09-09T06:26:34.293Z,16.70
2022-09-09T06:29:04.433Z,16.80
2022-09-09T06:31:35.366Z,16.90
2022-09-09T06:34:03.153Z,17.00
2022-09-09T06:36:33.468Z,17.20
2022-09-09T06:39:00.880Z,17.50
2022-09-09T06:41:30.598Z,18.10
2022-09-09T06:43:57.498Z,18.70
2022-09-09T06:46:28.829Z,19.20
2022-09-09T06:48:58.037Z,19.30
2022-09-09T06:51:35.125Z,19.20
2022-09-09T06:54:03.656Z,18.70
2022-09-09T06:56:42.889Z,18.60
2022-09-09T06:59:10.861Z,18.50
2022-09-09T07:01:43.232Z,18.40
2022-09-09T07:04:11.822Z,18.40
2022-09-09T07:06:44.026Z,18.60
2022-09-09T07:09:13.920Z,18.80
2022-09-09T07:11:53.542Z,19.00
2022-09-09T07:14:21.785Z,19.20
2022-09-09T07:16:59.824Z,19.40
2022-09-09T07:19:26.725Z,19.60
2022-09-09T07:21:53.370Z,19.60
2022-09-09T07:24:20.050Z,19.50
2022-09-09T07:26:47.108Z,19.40
2022-09-09T07:29:20.657Z,19.10
2022-09-09T07:31:48.442Z,19.10
2022-09-09T07:34:15.085Z,19.40
2022-09-09T07:36:43.039Z,19.30
2022-09-09T07:39:14.810Z,19.40
2022-09-09T07:41:45.597Z,19.40
2022-09-09T07:44:16.148Z,19.40
2022-09-09T07:46:43.469Z,19.60
2022-09-09T07:49:11.622Z,19.40
2022-09-09T07:51:48.237Z,19.10
2022-09-09T07:54:18.260Z,18.90
2022-09-09T07:56:48.088Z,18.90
2022-09-09T07:59:14.903Z,19.00
2022-09-09T08:01:47.435Z,19.00
2022-09-09T08:04:18.610Z,19.10
2022-09-09T08:06:53.784Z,19.20
2022-09-09T08:09:21.619Z,19.40
2022-09-09T08:11:48.625Z,19.60
2022-09-09T08:14:15.700Z,20.40
2022-09-09T08:16:48.228Z,21.40
2022-09-09T08:19:18.163Z,22.20
2022-09-09T08:21:45.792Z,22.80
2022-09-09T08:24:15.074Z,23.20
2022-09-09T08:26:49.865Z,23.30
2022-09-09T08:29:19.749Z,23.00
2022-09-09T08:31:52.082Z,22.60
2022-09-09T08:34:22.206Z,23.80
2022-09-09T08:36:50.718Z,23.70
2022-09-09T08:39:20.928Z,23.80
2022-09-09T08:42:10.103Z,23.50
2022-09-09T08:45:14.879Z,24.10
2022-09-09T08:48:04.905Z,24.10
2022-09-09T08:50:36.872Z,23.90
2022-09-09T08:53:17.491Z,23.60
2022-09-09T08:55:47.217Z,22.50
2022-09-09T09:01:09.764Z,22.20
2022-09-09T09:04:04.355Z,22.50
2022-09-09T09:06:46.888Z,22.90
2022-09-09T09:09:34.920Z,22.90
2022-09-09T09:12:14.005Z,23.60
2022-09-09T09:14:42.871Z,25.50
2022-09-09T09:17:16.332Z,27.50
2022-09-09T09:22:37.978Z,29.70
2022-09-09T09:25:23.060Z,30.20
2022-09-09T09:28:06.068Z,28.10
2022-09-09T09:30:43.865Z,24.30
2022-09-09T09:33:36.120Z,22.60
2022-09-09T09:36:04.209Z,21.50
2022-09-09T09:41:19.255Z,20.70
2022-09-09T09:43:55.358Z,20.30
2022-09-09T09:46:26.244Z,20.20
2022-09-09T09:49:02.383Z,20.30
2022-09-09T09:51:31.545Z,20.70
2022-09-09T09:54:29.883Z,20.70
2022-09-09T09:56:57.614Z,20.90
2022-09-09T09:59:39.800Z,21.00
2022-09-09T10:02:32.779Z,21.00
2022-09-09T10:05:15.146Z,20.70
2022-09-09T10:07:44.634Z,20.60
2022-09-09T10:10:21.003Z,20.70
2022-09-09T10:13:16.700Z,20.80
2022-09-09T10:16:07.169Z,21.10
2022-09-09T10:19:04.072Z,21.10
2022-09-09T10:21:45.225Z,21.10
2022-09-09T10:24:34.943Z,21.10
2022-09-09T10:27:09.425Z,21.20
2022-09-09T10:30:01.130Z,21.40
2022-09-09T10:32:32.010Z,21.50
2022-09-09T10:35:17.954Z,21.50
2022-09-09T10:38:15.043Z,21.40
2022-09-09T10:40:54.062Z,21.20
2022-09-09T10:43:46.417Z,21.40
2022-09-09T10:46:43.483Z,21.60
2022-09-09T10:49:23.044Z,21.80
2022-09-09T10:52:23.291Z,22.10
2022-09-09T10:55:11.896Z,22.00
2022-09-09T10:57:51.070Z,22.10
2022-09-09T11:00:41.595Z,22.10
2022-09-09T11:03:27.498Z,22.10
2022-09-09T11:06:16.057Z,22.10
2022-09-09T11:08:43.850Z,22.30
2022-09-09T11:11:40.862Z,22.30
2022-09-09T11:14:21.519Z,22.40
2022-09-09T11:17:05.780Z,22.40
2022-09-09T11:19:40.987Z,22.20
2022-09-09T11:22:22.603Z,22.30
2022-09-09T11:25:14.334Z,22.20
2022-09-09T11:28:18.271Z,22.00
2022-09-09T11:31:14.167Z,21.90
2022-09-09T11:34:15.089Z,21.80
2022-09-09T11:37:08.726Z,21.80
2022-09-09T11:39:58.723Z,21.70
2022-09-09T11:42:25.861Z,21.90
2022-09-09T11:44:55.703Z,21.90
2022-09-09T11:47:32.265Z,21.80
2022-09-09T11:50:38.333Z,21.90
2022-09-09T11:53:21.903Z,22.20
2022-09-09T11:55:49.255Z,22.10
2022-09-09T11:58:19.212Z,22.10
2022-09-09T12:00:51.018Z,22.10
2022-09-09T12:03:43.071Z,22.00
2022-09-09T12:06:34.983Z,21.80
2022-09-09T12:09:27.351Z,21.40
2022-09-09T12:11:54.035Z,21.40
2022-09-09T12:15:03.772Z,21.50
2022-09-09T12:17:47.581Z,21.50
2022-09-09T12:20:37.679Z,21.50
2022-09-09T12:23:45.621Z,21.50
2022-09-09T12:26:33.928Z,21.60
2022-09-09T12:29:30.513Z,21.50
2022-09-09T12:32:05.752Z,21.50
2022-09-09T12:34:42.146Z,21.60
2022-09-09T12:37:35.895Z,21.50
2022-09-09T12:40:21.403Z,21.60
2022-09-09T12:42:48.395Z,21.70
2022-09-09T12:45:27.041Z,21.90
2022-09-09T12:48:12.905Z,22.10
2022-09-09T12:50:50.299Z,22.10
2022-09-09T12:53:38.036Z,21.90
2022-09-09T12:56:08.964Z,21.60
2022-09-09T12:58:38.360Z,21.70
2022-09-09T13:01:07.217Z,21.70
2022-09-09T13:03:43.891Z,21.80
2022-09-09T13:06:22.203Z,22.10
2022-09-09T13:08:53.489Z,22.20
2022-09-09T13:11:40.967Z,22.20
2022-09-09T13:14:07.631Z,22.30
2022-09-09T13:16:42.091Z,22.30
2022-09-09T13:19:16.184Z,22.40
2022-09-09T13:21:43.684Z,22.40
2022-09-09T13:24:35.607Z,22.30
2022-09-09T13:27:25.227Z,22.10
2022-09-09T13:29:57.650Z,22.10
2022-09-09T13:32:27.875Z,22.00
2022-09-09T13:35:01.093Z,22.00
2022-09-09T13:37:37.039Z,22.00
2022-09-09T13:40:07.633Z,22.10
2022-09-09T13:42:40.183Z,22.00
2022-09-09T13:45:21.389Z,21.90
2022-09-09T13:47:53.018Z,21.90
2022-09-09T13:50:29.236Z,21.80
2022-09-09T13:53:01.652Z,21.90
2022-09-09T13:55:29.950Z,22.00
2022-09-09T13:58:02.954Z,22.20
2022-09-09T14:00:34.989Z,22.10
2022-09-09T14:03:04.769Z,22.10
2022-09-09T14:05:34.136Z,22.10
2022-09-09T14:08:01.672Z,21.90
2022-09-09T14:10:28.590Z,21.70
2022-09-09T14:12:55.249Z,21.50
2022-09-09T14:15:22.733Z,21.30
2022-09-09T14:17:49.517Z,21.30
2022-09-09T14:20:18.433Z,21.40
2022-09-09T14:22:45.211Z,21.40
2022-09-09T14:25:14.264Z,21.30
2022-09-09T14:27:41.364Z,21.10
2022-09-09T14:30:09.253Z,20.90
2022-09-09T14:32:36.128Z,20.80
2022-09-09T14:35:03.107Z,20.70
2022-09-09T14:37:31.980Z,20.50
2022-09-09T14:39:59.310Z,20.50
2022-09-09T14:42:27.620Z,20.50
2022-09-09T14:44:54.385Z,20.50
2022-09-09T14:47:21.089Z,20.60
2022-09-09T14:49:50.294Z,20.60
2022-09-09T14:52:17.359Z,20.60
2022-09-09T14:54:44.188Z,20.70
2022-09-09T14:57:10.900Z,20.70
2022-09-09T14:59:37.579Z,20.80
2022-09-09T15:02:05.299Z,20.70
2022-09-09T15:04:32.372Z,20.70
2022-09-09T15:06:59.703Z,20.60
2022-09-09T15:09:26.362Z,20.50
2022-09-09T15:11:53.004Z,20.40
2022-09-09T15:14:22.449Z,20.30
2022-09-09T15:16:51.990Z,20.30
2022-09-09T15:19:18.680Z,20.30
2022-09-09T15:21:45.379Z,20.50
2022-09-09T15:24:12.056Z,20.60
2022-09-09T15:26:41.741Z,20.70
2022-09-09T15:29:09.149Z,20.80
2022-09-09T15:31:36.701Z,20.80
2022-09-09T15:34:06.552Z,21.10
2022-09-09T15:36:44.912Z,21.10
2022-09-09T15:39:16.513Z,21.10
2022-09-09T15:41:45.187Z,20.90
2022-09-09T15:44:13.150Z,20.70
2022-09-09T15:46:49.772Z,20.50
2022-09-09T15:49:20.510Z,20.30
2022-09-09T15:51:54.152Z,20.20
2022-09-09T15:54:24.908Z,20.00
2022-09-09T15:56:57.700Z,19.90
2022-09-09T15:59:26.304Z,19.70
2022-09-09T16:01:53.331Z,19.60
2022-09-09T16:04:26.901Z,19.40
2022-09-09T16:06:59.578Z,19.30
2022-09-09T16:09:27.896Z,19.20
2022-09-09T16:11:59.873Z,19.10
2022-09-09T16:14:26.800Z,19.10
2022-09-09T16:16:53.676Z,19.00
2022-09-09T16:19:20.744Z,18.90
2022-09-09T16:21:50.371Z,18.80
2022-09-09T16:24:20.339Z,18.70
2022-09-09T16:26:53.307Z,18.60
2022-09-09T16:29:22.663Z,18.60
2022-09-09T16:31:51.030Z,18.60
2022-09-09T16:34:19.435Z,18.60
2022-09-09T16:36:48.094Z,18.60
2022-09-09T16:39:18.179Z,18.60
2022-09-09T16:41:46.429Z,18.60
2022-09-09T16:44:16.532Z,18.70
2022-09-09T16:46:44.320Z,18.60
2022-09-09T16:49:16.673Z,18.60
2022-09-09T16:51:50.277Z,18.60
2022-09-09T16:54:19.101Z,18.60
2022-09-09T16:56:48.228Z,18.50
2022-09-09T16:59:20.862Z,18.40
2022-09-09T17:01:51.230Z,18.30
2022-09-09T17:04:25.061Z,18.30
2022-09-09T17:06:54.980Z,18.20
2022-09-09T17:09:29.558Z,18.10
2022-09-09T17:11:56.173Z,18.10
2022-09-09T17:14:23.545Z,18.00
2022-09-09T17:16:50.433Z,18.10
2022-09-09T17:19:17.721Z,18.10
2022-09-09T17:22:12.566Z,18.10
2022-09-09T17:24:31.318Z,18.10
2022-09-09T17:26:58.641Z,18.00
2022-09-09T17:29:26.516Z,18.00
2022-09-09T17:31:54.013Z,18.00
2022-09-09T17:34:20.825Z,17.90
2022-09-09T17:36:47.796Z,17.90
2022-09-09T17:39:14.707Z,17.90
2022-09-09T17:41:41.714Z,17.90
2022-09-09T17:44:10.303Z,17.90
2022-09-09T17:46:41.449Z,17.90
2022-09-09T17:49:12.901Z,17.80
2022-09-09T17:51:42.138Z,17.80
2022-09-09T17:54:13.008Z,17.70
2022-09-09T17:56:42.035Z,17.70
2022-09-09T17:59:11.984Z,17.60
2022-09-09T18:01:47.068Z,17.50
2022-09-09T18:04:15.782Z,17.50
2022-09-09T18:06:51.451Z,17.40
2022-09-09T18:09:23.340Z,17.40
2022-09-09T18:11:54.239Z,17.30
2022-09-09T18:14:25.008Z,17.30
2022-09-09T18:16:52.445Z,17.20
2022-09-09T18:19:24.022Z,17.20
2022-09-09T18:21:51.279Z,17.10
2022-09-09T18:24:21.029Z,17.10
2022-09-09T18:26:49.234Z,17.00
2022-09-09T18:29:25.000Z,17.00
2022-09-09T18:31:54.195Z,16.90
2022-09-09T18:34:23.134Z,16.90
2022-09-09T18:36:55.810Z,16.90
2022-09-09T18:39:28.929Z,16.80
2022-09-09T18:42:01.256Z,16.80
2022-09-09T18:44:34.337Z,16.80
2022-09-09T18:47:01.529Z,16.80
2022-09-09T18:49:28.398Z,16.80
2022-09-09T18:51:56.345Z,16.80
2022-09-09T18:54:29.794Z,16.80
2022-09-09T18:56:56.954Z,16.80
2022-09-09T18:59:24.501Z,16.70
2022-09-09T19:01:53.895Z,16.80
2022-09-09T19:04:22.728Z,16.80
2022-09-09T19:06:57.408Z,16.80
2022-09-09T19:09:28.333Z,16.80
2022-09-09T19:11:55.250Z,16.80
2022-09-09T19:14:21.950Z,16.70
2022-09-09T19:16:48.648Z,16.60
2022-09-09T19:19:26.698Z,16.60
2022-09-09T19:21:57.427Z,16.50
2022-09-09T19:24:30.860Z,16.50
2022-09-09T19:27:06.520Z,16.40
2022-09-09T19:29:36.354Z,16.40
2022-09-09T19:34:52.090Z,16.30
2022-09-09T19:37:22.354Z,16.20
2022-09-09T19:39:50.214Z,16.30
2022-09-09T19:42:16.915Z,16.20
2022-09-09T19:44:43.627Z,16.20
2022-09-09T19:47:10.628Z,16.20
2022-09-09T19:49:37.286Z,16.10
2022-09-09T19:52:04.439Z,16.10
2022-09-09T19:54:31.266Z,16.00
2022-09-09T19:56:57.959Z,16.00
2022-09-09T19:59:24.774Z,15.90
2022-09-09T20:01:51.534Z,15.90
2022-09-09T20:04:18.946Z,15.80
2022-09-09T20:06:46.219Z,15.80
2022-09-09T20:09:16.688Z,15.80
2022-09-09T20:11:45.659Z,15.80
2022-09-09T20:14:12.978Z,15.70
2022-09-09T20:16:40.505Z,15.70
2022-09-09T20:19:10.958Z,15.70
2022-09-09T20:21:46.543Z,15.80
2022-09-09T20:24:18.711Z,15.80
2022-09-09T20:26:48.151Z,15.80
2022-09-09T20:29:18.454Z,15.80
2022-09-09T20:31:45.913Z,15.80
2022-09-09T20:34:16.211Z,15.80
2022-09-09T20:36:43.472Z,15.70
2022-09-09T20:39:16.292Z,15.70
2022-09-09T20:41:45.217Z,15.60
2022-09-09T20:44:21.621Z,15.50
2022-09-09T20:46:52.493Z,15.50
2022-09-09T20:49:22.350Z,15.40
2022-09-09T20:51:50.257Z,15.40
2022-09-09T20:54:23.739Z,15.30
2022-09-09T20:56:52.560Z,15.30
2022-09-09T20:59:23.008Z,15.30
2022-09-09T21:01:50.674Z,15.20
2022-09-09T21:04:19.572Z,15.10
2022-09-09T21:06:49.993Z,15.00
2022-09-09T21:09:17.737Z,14.90
2022-09-09T21:11:44.295Z,14.80
2022-09-09T21:14:11.107Z,14.60
2022-09-09T21:16:37.765Z,14.60
2022-09-09T21:19:04.440Z,14.50
2022-09-09T21:21:31.277Z,14.50
2022-09-09T21:24:00.306Z,14.40
2022-09-09T21:26:28.859Z,14.40
2022-09-09T21:28:55.773Z,14.40
2022-09-09T21:31:27.865Z,14.40
2022-09-09T21:33:58.835Z,14.40
2022-09-09T21:36:27.917Z,14.50
2022-09-09T21:38:54.471Z,14.50
2022-09-09T21:41:21.435Z,14.60
2022-09-09T21:43:54.068Z,14.70
2022-09-09T21:46:22.999Z,14.60
2022-09-09T21:48:50.546Z,14.70
2022-09-09T21:51:18.287Z,14.70
2022-09-09T21:53:45.168Z,14.70
2022-09-09T21:56:18.736Z,14.80
2022-09-09T21:58:47.065Z,14.80
2022-09-09T22:01:18.659Z,14.80
2022-09-09T22:03:45.879Z,14.80
2022-09-09T22:06:16.036Z,14.80
2022-09-09T22:08:43.652Z,14.70
2022-09-09T22:11:14.455Z,14.80
2022-09-09T22:13:42.463Z,14.70
2022-09-09T22:16:13.537Z,14.60
2022-09-09T22:18:41.527Z,14.60
2022-09-09T22:21:18.624Z,14.60
2022-09-09T22:23:51.011Z,14.60
2022-09-09T22:26:20.077Z,14.50
2022-09-09T22:28:47.136Z,14.50
2022-09-09T22:31:14.155Z,14.50
2022-09-09T22:33:40.928Z,14.50
2022-09-09T22:36:09.900Z,14.50
2022-09-09T22:38:36.739Z,14.50
2022-09-09T22:41:05.175Z,14.50
2022-09-09T22:43:32.872Z,14.60
2022-09-09T22:46:03.220Z,14.60
2022-09-09T22:48:34.258Z,14.50
2022-09-09T22:51:06.568Z,14.60
2022-09-09T22:53:35.548Z,14.60
2022-09-09T22:56:05.905Z,14.50
2022-09-09T22:58:36.115Z,14.60
2022-09-09T23:01:11.227Z,14.60
2022-09-09T23:03:37.925Z,14.60
2022-09-09T23:06:06.096Z,14.60
2022-09-09T23:08:36.511Z,14.60
2022-09-09T23:11:13.520Z,14.60
2022-09-09T23:13:42.995Z,14.70
2022-09-09T23:16:17.892Z,14.60
2022-09-09T23:18:45.144Z,14.50
2022-09-09T23:21:14.541Z,14.50
2022-09-09T23:23:43.039Z,14.40
2022-09-09T23:26:14.091Z,14.40
2022-09-09T23:28:44.024Z,14.50
2022-09-09T23:31:16.803Z,14.50
2022-09-09T23:33:43.725Z,14.60
2022-09-09T23:36:19.624Z,14.60
2022-09-09T23:38:47.238Z,14.70
2022-09-09T23:41:20.748Z,14.70
2022-09-09T23:43:49.338Z,14.80
2022-09-09T23:46:20.201Z,14.80
2022-09-09T23:48:51.470Z,14.90
2022-09-09T23:51:23.539Z,14.90
2022-09-09T23:53:53.341Z,14.90
2022-09-09T23:56:22.675Z,14.90
2022-09-09T23:58:50.661Z,15.00
